<?xml version="1.0" encoding="UTF-8" standalone="no" ?>
<gpx xmlns="http://www.topografix.com/GPX/1/1" xmlns:xsi="http://www.w3.org/2001/XMLSchema-instance" xsi:schemaLocation="http://www.topografix.com/GPX/1/1 http://www.topografix.com/GPX/1/1/gpx.xsd" version="1.1" creator="VisuGPX - https://www.visugpx.com">
  <metadata>
    <name>Rando santé 6</name>
    <desc><![CDATA[Circuit de la plaine de Sorques, forêt, bords du Loing, étangs et observatoire.]]></desc>
  </metadata>
  <trk>
    <name><![CDATA[20 janv. 2015 09:41:40]]></name>
    <cmt><![CDATA[20 janv. 2015 09:41:40]]></cmt>
    <trkseg>
      <trkpt lat="48.34577" lon="2.77759">
        <ele>52</ele>
        <time>2015-01-20T08:41:41Z</time>
      </trkpt>
      <trkpt lat="48.34591" lon="2.77777">
        <ele>56</ele>
        <time>2015-01-20T08:42:01Z</time>
      </trkpt>
      <trkpt lat="48.34595" lon="2.77782">
        <ele>56</ele>
        <time>2015-01-20T08:42:06Z</time>
      </trkpt>
      <trkpt lat="48.346" lon="2.77786">
        <ele>56</ele>
        <time>2015-01-20T08:42:12Z</time>
      </trkpt>
      <trkpt lat="48.34601" lon="2.7779">
        <ele>56</ele>
        <time>2015-01-20T08:42:16Z</time>
      </trkpt>
      <trkpt lat="48.34605" lon="2.77794">
        <ele>56</ele>
        <time>2015-01-20T08:42:20Z</time>
      </trkpt>
      <trkpt lat="48.34624" lon="2.77821">
        <ele>59</ele>
        <time>2015-01-20T08:42:52Z</time>
      </trkpt>
      <trkpt lat="48.3463" lon="2.77832">
        <ele>61</ele>
        <time>2015-01-20T08:43:05Z</time>
      </trkpt>
      <trkpt lat="48.34637" lon="2.77841">
        <ele>60</ele>
        <time>2015-01-20T08:43:16Z</time>
      </trkpt>
      <trkpt lat="48.34645" lon="2.7785">
        <ele>61</ele>
        <time>2015-01-20T08:43:23Z</time>
      </trkpt>
      <trkpt lat="48.34666" lon="2.77878">
        <ele>66</ele>
        <time>2015-01-20T08:43:50Z</time>
      </trkpt>
      <trkpt lat="48.34684" lon="2.77911">
        <ele>66</ele>
        <time>2015-01-20T08:44:17Z</time>
      </trkpt>
      <trkpt lat="48.3469" lon="2.77924">
        <ele>66</ele>
        <time>2015-01-20T08:44:26Z</time>
      </trkpt>
      <trkpt lat="48.347" lon="2.77946">
        <ele>67</ele>
        <time>2015-01-20T08:44:44Z</time>
      </trkpt>
      <trkpt lat="48.34707" lon="2.77958">
        <ele>67</ele>
        <time>2015-01-20T08:44:53Z</time>
      </trkpt>
      <trkpt lat="48.34713" lon="2.77969">
        <ele>66</ele>
        <time>2015-01-20T08:45:03Z</time>
      </trkpt>
      <trkpt lat="48.34718" lon="2.77979">
        <ele>66</ele>
        <time>2015-01-20T08:45:11Z</time>
      </trkpt>
      <trkpt lat="48.3472" lon="2.77985">
        <ele>65</ele>
        <time>2015-01-20T08:45:17Z</time>
      </trkpt>
      <trkpt lat="48.34724" lon="2.77989">
        <ele>65</ele>
        <time>2015-01-20T08:45:23Z</time>
      </trkpt>
      <trkpt lat="48.34739" lon="2.7802">
        <ele>63</ele>
        <time>2015-01-20T08:45:46Z</time>
      </trkpt>
      <trkpt lat="48.34758" lon="2.78061">
        <ele>67</ele>
        <time>2015-01-20T08:46:19Z</time>
      </trkpt>
      <trkpt lat="48.3477" lon="2.78082">
        <ele>68</ele>
        <time>2015-01-20T08:46:39Z</time>
      </trkpt>
      <trkpt lat="48.34781" lon="2.78106">
        <ele>67</ele>
        <time>2015-01-20T08:46:58Z</time>
      </trkpt>
      <trkpt lat="48.34791" lon="2.78131">
        <ele>68</ele>
        <time>2015-01-20T08:47:15Z</time>
      </trkpt>
      <trkpt lat="48.34808" lon="2.78164">
        <ele>68</ele>
        <time>2015-01-20T08:47:45Z</time>
      </trkpt>
      <trkpt lat="48.34812" lon="2.78177">
        <ele>67</ele>
        <time>2015-01-20T08:47:54Z</time>
      </trkpt>
      <trkpt lat="48.34826" lon="2.78215">
        <ele>66</ele>
        <time>2015-01-20T08:48:20Z</time>
      </trkpt>
      <trkpt lat="48.3484" lon="2.78235">
        <ele>65</ele>
        <time>2015-01-20T08:48:36Z</time>
      </trkpt>
      <trkpt lat="48.34851" lon="2.7826">
        <ele>66</ele>
        <time>2015-01-20T08:48:59Z</time>
      </trkpt>
      <trkpt lat="48.34868" lon="2.78295">
        <ele>64</ele>
        <time>2015-01-20T08:49:27Z</time>
      </trkpt>
      <trkpt lat="48.34875" lon="2.78305">
        <ele>64</ele>
        <time>2015-01-20T08:49:36Z</time>
      </trkpt>
      <trkpt lat="48.34882" lon="2.78317">
        <ele>66</ele>
        <time>2015-01-20T08:49:46Z</time>
      </trkpt>
      <trkpt lat="48.34885" lon="2.78323">
        <ele>67</ele>
        <time>2015-01-20T08:49:51Z</time>
      </trkpt>
      <trkpt lat="48.34897" lon="2.78337">
        <ele>66</ele>
        <time>2015-01-20T08:50:04Z</time>
      </trkpt>
      <trkpt lat="48.34906" lon="2.7835">
        <ele>65</ele>
        <time>2015-01-20T08:50:18Z</time>
      </trkpt>
      <trkpt lat="48.34933" lon="2.78382">
        <ele>65</ele>
        <time>2015-01-20T08:50:51Z</time>
      </trkpt>
      <trkpt lat="48.34939" lon="2.78393">
        <ele>65</ele>
        <time>2015-01-20T08:51:00Z</time>
      </trkpt>
      <trkpt lat="48.34946" lon="2.78402">
        <ele>65</ele>
        <time>2015-01-20T08:51:09Z</time>
      </trkpt>
      <trkpt lat="48.34954" lon="2.7841">
        <ele>66</ele>
        <time>2015-01-20T08:51:21Z</time>
      </trkpt>
      <trkpt lat="48.34972" lon="2.78431">
        <ele>65</ele>
        <time>2015-01-20T08:51:41Z</time>
      </trkpt>
      <trkpt lat="48.34977" lon="2.78431">
        <ele>65</ele>
        <time>2015-01-20T08:51:45Z</time>
      </trkpt>
      <trkpt lat="48.34981" lon="2.78436">
        <ele>66</ele>
        <time>2015-01-20T08:51:50Z</time>
      </trkpt>
      <trkpt lat="48.34992" lon="2.78449">
        <ele>67</ele>
        <time>2015-01-20T08:52:05Z</time>
      </trkpt>
      <trkpt lat="48.34995" lon="2.78456">
        <ele>67</ele>
        <time>2015-01-20T08:52:10Z</time>
      </trkpt>
      <trkpt lat="48.35004" lon="2.7849">
        <ele>66</ele>
        <time>2015-01-20T08:52:35Z</time>
      </trkpt>
      <trkpt lat="48.35013" lon="2.78515">
        <ele>67</ele>
        <time>2015-01-20T08:52:55Z</time>
      </trkpt>
      <trkpt lat="48.35016" lon="2.78536">
        <ele>67</ele>
        <time>2015-01-20T08:53:10Z</time>
      </trkpt>
      <trkpt lat="48.35029" lon="2.78559">
        <ele>67</ele>
        <time>2015-01-20T08:53:28Z</time>
      </trkpt>
      <trkpt lat="48.35024" lon="2.78561">
        <ele>67</ele>
        <time>2015-01-20T08:53:33Z</time>
      </trkpt>
      <trkpt lat="48.35027" lon="2.78569">
        <ele>66</ele>
        <time>2015-01-20T08:53:37Z</time>
      </trkpt>
      <trkpt lat="48.35031" lon="2.78575">
        <ele>66</ele>
        <time>2015-01-20T08:53:40Z</time>
      </trkpt>
      <trkpt lat="48.35032" lon="2.78582">
        <ele>66</ele>
        <time>2015-01-20T08:53:44Z</time>
      </trkpt>
      <trkpt lat="48.35043" lon="2.78601">
        <ele>66</ele>
        <time>2015-01-20T08:53:54Z</time>
      </trkpt>
      <trkpt lat="48.35043" lon="2.78608">
        <ele>66</ele>
        <time>2015-01-20T08:54:01Z</time>
      </trkpt>
      <trkpt lat="48.35058" lon="2.78654">
        <ele>65</ele>
        <time>2015-01-20T08:54:32Z</time>
      </trkpt>
      <trkpt lat="48.35064" lon="2.78668">
        <ele>65</ele>
        <time>2015-01-20T08:54:42Z</time>
      </trkpt>
      <trkpt lat="48.35066" lon="2.78675">
        <ele>64</ele>
        <time>2015-01-20T08:54:47Z</time>
      </trkpt>
      <trkpt lat="48.3507" lon="2.7868">
        <ele>64</ele>
        <time>2015-01-20T08:54:52Z</time>
      </trkpt>
      <trkpt lat="48.35074" lon="2.78683">
        <ele>65</ele>
        <time>2015-01-20T08:54:57Z</time>
      </trkpt>
      <trkpt lat="48.35077" lon="2.78693">
        <ele>65</ele>
        <time>2015-01-20T08:55:06Z</time>
      </trkpt>
      <trkpt lat="48.35081" lon="2.78698">
        <ele>65</ele>
        <time>2015-01-20T08:55:11Z</time>
      </trkpt>
      <trkpt lat="48.35091" lon="2.78714">
        <ele>65</ele>
        <time>2015-01-20T08:55:26Z</time>
      </trkpt>
      <trkpt lat="48.35111" lon="2.7875">
        <ele>65</ele>
        <time>2015-01-20T08:55:58Z</time>
      </trkpt>
      <trkpt lat="48.35134" lon="2.7878">
        <ele>65</ele>
        <time>2015-01-20T08:56:28Z</time>
      </trkpt>
      <trkpt lat="48.35138" lon="2.78784">
        <ele>65</ele>
        <time>2015-01-20T08:56:32Z</time>
      </trkpt>
      <trkpt lat="48.35138" lon="2.78791">
        <ele>65</ele>
        <time>2015-01-20T08:56:38Z</time>
      </trkpt>
      <trkpt lat="48.35145" lon="2.78801">
        <ele>65</ele>
        <time>2015-01-20T08:56:46Z</time>
      </trkpt>
      <trkpt lat="48.35155" lon="2.78809">
        <ele>65</ele>
        <time>2015-01-20T08:56:59Z</time>
      </trkpt>
      <trkpt lat="48.35175" lon="2.78839">
        <ele>66</ele>
        <time>2015-01-20T08:57:27Z</time>
      </trkpt>
      <trkpt lat="48.35181" lon="2.78882">
        <ele>68</ele>
        <time>2015-01-20T08:57:54Z</time>
      </trkpt>
      <trkpt lat="48.35188" lon="2.78891">
        <ele>69</ele>
        <time>2015-01-20T08:58:02Z</time>
      </trkpt>
      <trkpt lat="48.35195" lon="2.78902">
        <ele>69</ele>
        <time>2015-01-20T08:58:10Z</time>
      </trkpt>
      <trkpt lat="48.352" lon="2.78914">
        <ele>68</ele>
        <time>2015-01-20T08:58:17Z</time>
      </trkpt>
      <trkpt lat="48.35214" lon="2.78945">
        <ele>69</ele>
        <time>2015-01-20T08:58:39Z</time>
      </trkpt>
      <trkpt lat="48.35218" lon="2.78963">
        <ele>69</ele>
        <time>2015-01-20T08:58:49Z</time>
      </trkpt>
      <trkpt lat="48.35231" lon="2.78986">
        <ele>70</ele>
        <time>2015-01-20T08:59:10Z</time>
      </trkpt>
      <trkpt lat="48.3524" lon="2.7901">
        <ele>70</ele>
        <time>2015-01-20T08:59:29Z</time>
      </trkpt>
      <trkpt lat="48.35255" lon="2.79028">
        <ele>70</ele>
        <time>2015-01-20T08:59:48Z</time>
      </trkpt>
      <trkpt lat="48.3527" lon="2.7905">
        <ele>71</ele>
        <time>2015-01-20T09:00:08Z</time>
      </trkpt>
      <trkpt lat="48.35277" lon="2.79059">
        <ele>70</ele>
        <time>2015-01-20T09:00:14Z</time>
      </trkpt>
      <trkpt lat="48.35285" lon="2.79084">
        <ele>69</ele>
        <time>2015-01-20T09:00:34Z</time>
      </trkpt>
      <trkpt lat="48.35314" lon="2.79122">
        <ele>68</ele>
        <time>2015-01-20T09:01:08Z</time>
      </trkpt>
      <trkpt lat="48.35323" lon="2.7913">
        <ele>68</ele>
        <time>2015-01-20T09:01:15Z</time>
      </trkpt>
      <trkpt lat="48.35326" lon="2.79143">
        <ele>67</ele>
        <time>2015-01-20T09:01:29Z</time>
      </trkpt>
      <trkpt lat="48.35327" lon="2.7915">
        <ele>67</ele>
        <time>2015-01-20T09:01:34Z</time>
      </trkpt>
      <trkpt lat="48.35331" lon="2.79155">
        <ele>67</ele>
        <time>2015-01-20T09:01:38Z</time>
      </trkpt>
      <trkpt lat="48.35343" lon="2.79172">
        <ele>65</ele>
        <time>2015-01-20T09:01:51Z</time>
      </trkpt>
      <trkpt lat="48.35346" lon="2.79175">
        <ele>65</ele>
        <time>2015-01-20T09:01:55Z</time>
      </trkpt>
      <trkpt lat="48.35349" lon="2.79189">
        <ele>65</ele>
        <time>2015-01-20T09:02:05Z</time>
      </trkpt>
      <trkpt lat="48.35371" lon="2.79219">
        <ele>65</ele>
        <time>2015-01-20T09:02:30Z</time>
      </trkpt>
      <trkpt lat="48.35375" lon="2.79222">
        <ele>65</ele>
        <time>2015-01-20T09:02:34Z</time>
      </trkpt>
      <trkpt lat="48.3538" lon="2.79226">
        <ele>65</ele>
        <time>2015-01-20T09:02:39Z</time>
      </trkpt>
      <trkpt lat="48.35383" lon="2.79233">
        <ele>65</ele>
        <time>2015-01-20T09:02:44Z</time>
      </trkpt>
      <trkpt lat="48.35388" lon="2.79236">
        <ele>64</ele>
        <time>2015-01-20T09:02:52Z</time>
      </trkpt>
      <trkpt lat="48.35391" lon="2.79243">
        <ele>64</ele>
        <time>2015-01-20T09:02:57Z</time>
      </trkpt>
      <trkpt lat="48.35393" lon="2.7925">
        <ele>64</ele>
        <time>2015-01-20T09:03:01Z</time>
      </trkpt>
      <trkpt lat="48.35393" lon="2.79257">
        <ele>64</ele>
        <time>2015-01-20T09:03:10Z</time>
      </trkpt>
      <trkpt lat="48.35397" lon="2.79264">
        <ele>64</ele>
        <time>2015-01-20T09:03:23Z</time>
      </trkpt>
      <trkpt lat="48.35403" lon="2.79276">
        <ele>64</ele>
        <time>2015-01-20T09:03:32Z</time>
      </trkpt>
      <trkpt lat="48.35408" lon="2.79279">
        <ele>64</ele>
        <time>2015-01-20T09:03:38Z</time>
      </trkpt>
      <trkpt lat="48.35418" lon="2.79298">
        <ele>64</ele>
        <time>2015-01-20T09:03:53Z</time>
      </trkpt>
      <trkpt lat="48.3542" lon="2.7932">
        <ele>63</ele>
        <time>2015-01-20T09:04:09Z</time>
      </trkpt>
      <trkpt lat="48.35427" lon="2.79331">
        <ele>63</ele>
        <time>2015-01-20T09:04:19Z</time>
      </trkpt>
      <trkpt lat="48.35444" lon="2.79358">
        <ele>65</ele>
        <time>2015-01-20T09:04:41Z</time>
      </trkpt>
      <trkpt lat="48.35451" lon="2.7937">
        <ele>65</ele>
        <time>2015-01-20T09:04:51Z</time>
      </trkpt>
      <trkpt lat="48.35454" lon="2.79375">
        <ele>65</ele>
        <time>2015-01-20T09:04:54Z</time>
      </trkpt>
      <trkpt lat="48.35461" lon="2.79385">
        <ele>66</ele>
        <time>2015-01-20T09:05:02Z</time>
      </trkpt>
      <trkpt lat="48.35468" lon="2.79395">
        <ele>66</ele>
        <time>2015-01-20T09:05:16Z</time>
      </trkpt>
      <trkpt lat="48.35494" lon="2.79438">
        <ele>65</ele>
        <time>2015-01-20T09:05:52Z</time>
      </trkpt>
      <trkpt lat="48.35522" lon="2.79474">
        <ele>65</ele>
        <time>2015-01-20T09:06:31Z</time>
      </trkpt>
      <trkpt lat="48.35529" lon="2.79483">
        <ele>65</ele>
        <time>2015-01-20T09:06:40Z</time>
      </trkpt>
      <trkpt lat="48.35535" lon="2.79493">
        <ele>65</ele>
        <time>2015-01-20T09:06:51Z</time>
      </trkpt>
      <trkpt lat="48.35542" lon="2.79503">
        <ele>66</ele>
        <time>2015-01-20T09:06:59Z</time>
      </trkpt>
      <trkpt lat="48.3556" lon="2.79536">
        <ele>66</ele>
        <time>2015-01-20T09:07:24Z</time>
      </trkpt>
      <trkpt lat="48.3559" lon="2.79571">
        <ele>67</ele>
        <time>2015-01-20T09:07:58Z</time>
      </trkpt>
      <trkpt lat="48.35601" lon="2.79588">
        <ele>66</ele>
        <time>2015-01-20T09:08:16Z</time>
      </trkpt>
      <trkpt lat="48.35606" lon="2.7959">
        <ele>66</ele>
        <time>2015-01-20T09:08:20Z</time>
      </trkpt>
      <trkpt lat="48.35615" lon="2.79601">
        <ele>66</ele>
        <time>2015-01-20T09:08:28Z</time>
      </trkpt>
      <trkpt lat="48.3562" lon="2.79614">
        <ele>66</ele>
        <time>2015-01-20T09:08:36Z</time>
      </trkpt>
      <trkpt lat="48.35624" lon="2.79618">
        <ele>65</ele>
        <time>2015-01-20T09:08:42Z</time>
      </trkpt>
      <trkpt lat="48.35629" lon="2.79625">
        <ele>65</ele>
        <time>2015-01-20T09:08:47Z</time>
      </trkpt>
      <trkpt lat="48.35631" lon="2.79632">
        <ele>64</ele>
        <time>2015-01-20T09:08:50Z</time>
      </trkpt>
      <trkpt lat="48.35636" lon="2.79637">
        <ele>64</ele>
        <time>2015-01-20T09:08:55Z</time>
      </trkpt>
      <trkpt lat="48.35642" lon="2.79649">
        <ele>65</ele>
        <time>2015-01-20T09:09:05Z</time>
      </trkpt>
      <trkpt lat="48.3565" lon="2.7965">
        <ele>65</ele>
        <time>2015-01-20T09:09:11Z</time>
      </trkpt>
      <trkpt lat="48.35668" lon="2.79672">
        <ele>66</ele>
        <time>2015-01-20T09:09:25Z</time>
      </trkpt>
      <trkpt lat="48.35671" lon="2.79685">
        <ele>66</ele>
        <time>2015-01-20T09:09:34Z</time>
      </trkpt>
      <trkpt lat="48.35674" lon="2.79692">
        <ele>66</ele>
        <time>2015-01-20T09:09:38Z</time>
      </trkpt>
      <trkpt lat="48.3568" lon="2.79711">
        <ele>66</ele>
        <time>2015-01-20T09:09:58Z</time>
      </trkpt>
      <trkpt lat="48.35688" lon="2.79722">
        <ele>65</ele>
        <time>2015-01-20T09:10:04Z</time>
      </trkpt>
      <trkpt lat="48.35694" lon="2.79751">
        <ele>64</ele>
        <time>2015-01-20T09:10:20Z</time>
      </trkpt>
      <trkpt lat="48.35695" lon="2.79767">
        <ele>62</ele>
        <time>2015-01-20T09:10:29Z</time>
      </trkpt>
      <trkpt lat="48.35699" lon="2.79782">
        <ele>62</ele>
        <time>2015-01-20T09:10:39Z</time>
      </trkpt>
      <trkpt lat="48.35699" lon="2.79789">
        <ele>62</ele>
        <time>2015-01-20T09:10:42Z</time>
      </trkpt>
      <trkpt lat="48.35701" lon="2.79795">
        <ele>61</ele>
        <time>2015-01-20T09:10:49Z</time>
      </trkpt>
      <trkpt lat="48.35705" lon="2.79799">
        <ele>60</ele>
        <time>2015-01-20T09:11:20Z</time>
      </trkpt>
      <trkpt lat="48.35706" lon="2.79804">
        <ele>60</ele>
        <time>2015-01-20T09:11:23Z</time>
      </trkpt>
      <trkpt lat="48.35704" lon="2.79811">
        <ele>59</ele>
        <time>2015-01-20T09:11:27Z</time>
      </trkpt>
      <trkpt lat="48.35706" lon="2.79818">
        <ele>59</ele>
        <time>2015-01-20T09:11:33Z</time>
      </trkpt>
      <trkpt lat="48.35705" lon="2.79825">
        <ele>59</ele>
        <time>2015-01-20T09:11:40Z</time>
      </trkpt>
      <trkpt lat="48.35707" lon="2.7983">
        <ele>59</ele>
        <time>2015-01-20T09:11:44Z</time>
      </trkpt>
      <trkpt lat="48.35709" lon="2.79834">
        <ele>59</ele>
        <time>2015-01-20T09:11:47Z</time>
      </trkpt>
      <trkpt lat="48.35712" lon="2.79845">
        <ele>59</ele>
        <time>2015-01-20T09:11:53Z</time>
      </trkpt>
      <trkpt lat="48.35709" lon="2.79851">
        <ele>59</ele>
        <time>2015-01-20T09:11:57Z</time>
      </trkpt>
      <trkpt lat="48.35712" lon="2.79856">
        <ele>58</ele>
        <time>2015-01-20T09:12:01Z</time>
      </trkpt>
      <trkpt lat="48.35715" lon="2.79863">
        <ele>57</ele>
        <time>2015-01-20T09:12:05Z</time>
      </trkpt>
      <trkpt lat="48.35721" lon="2.79876">
        <ele>56</ele>
        <time>2015-01-20T09:12:14Z</time>
      </trkpt>
      <trkpt lat="48.35719" lon="2.79874">
        <ele>56</ele>
        <time>2015-01-20T09:12:17Z</time>
      </trkpt>
      <trkpt lat="48.35705" lon="2.79849">
        <ele>57</ele>
        <time>2015-01-20T09:12:31Z</time>
      </trkpt>
      <trkpt lat="48.357" lon="2.79846">
        <ele>58</ele>
        <time>2015-01-20T09:12:36Z</time>
      </trkpt>
      <trkpt lat="48.35695" lon="2.7985">
        <ele>58</ele>
        <time>2015-01-20T09:12:41Z</time>
      </trkpt>
      <trkpt lat="48.35693" lon="2.79858">
        <ele>58</ele>
        <time>2015-01-20T09:12:44Z</time>
      </trkpt>
      <trkpt lat="48.35689" lon="2.79854">
        <ele>57</ele>
        <time>2015-01-20T09:12:50Z</time>
      </trkpt>
      <trkpt lat="48.35685" lon="2.79855">
        <ele>57</ele>
        <time>2015-01-20T09:12:59Z</time>
      </trkpt>
      <trkpt lat="48.35686" lon="2.7987">
        <ele>56</ele>
        <time>2015-01-20T09:13:07Z</time>
      </trkpt>
      <trkpt lat="48.35681" lon="2.79875">
        <ele>56</ele>
        <time>2015-01-20T09:13:11Z</time>
      </trkpt>
      <trkpt lat="48.35669" lon="2.79889">
        <ele>54</ele>
        <time>2015-01-20T09:13:25Z</time>
      </trkpt>
      <trkpt lat="48.35662" lon="2.799">
        <ele>54</ele>
        <time>2015-01-20T09:13:33Z</time>
      </trkpt>
      <trkpt lat="48.35652" lon="2.79907">
        <ele>54</ele>
        <time>2015-01-20T09:13:41Z</time>
      </trkpt>
      <trkpt lat="48.35644" lon="2.79915">
        <ele>53</ele>
        <time>2015-01-20T09:13:49Z</time>
      </trkpt>
      <trkpt lat="48.35637" lon="2.79921">
        <ele>53</ele>
        <time>2015-01-20T09:14:03Z</time>
      </trkpt>
      <trkpt lat="48.35632" lon="2.7993">
        <ele>53</ele>
        <time>2015-01-20T09:14:08Z</time>
      </trkpt>
      <trkpt lat="48.35627" lon="2.7993">
        <ele>54</ele>
        <time>2015-01-20T09:14:15Z</time>
      </trkpt>
      <trkpt lat="48.35607" lon="2.79927">
        <ele>54</ele>
        <time>2015-01-20T09:14:33Z</time>
      </trkpt>
      <trkpt lat="48.35598" lon="2.79933">
        <ele>54</ele>
        <time>2015-01-20T09:14:43Z</time>
      </trkpt>
      <trkpt lat="48.35573" lon="2.79941">
        <ele>53</ele>
        <time>2015-01-20T09:15:09Z</time>
      </trkpt>
      <trkpt lat="48.35561" lon="2.79933">
        <ele>53</ele>
        <time>2015-01-20T09:15:19Z</time>
      </trkpt>
      <trkpt lat="48.35537" lon="2.79934">
        <ele>53</ele>
        <time>2015-01-20T09:15:35Z</time>
      </trkpt>
      <trkpt lat="48.35526" lon="2.7994">
        <ele>52</ele>
        <time>2015-01-20T09:15:44Z</time>
      </trkpt>
      <trkpt lat="48.35518" lon="2.79933">
        <ele>53</ele>
        <time>2015-01-20T09:15:56Z</time>
      </trkpt>
      <trkpt lat="48.35514" lon="2.79937">
        <ele>53</ele>
        <time>2015-01-20T09:16:02Z</time>
      </trkpt>
      <trkpt lat="48.35509" lon="2.79938">
        <ele>54</ele>
        <time>2015-01-20T09:16:08Z</time>
      </trkpt>
      <trkpt lat="48.35465" lon="2.79932">
        <ele>55</ele>
        <time>2015-01-20T09:16:41Z</time>
      </trkpt>
      <trkpt lat="48.3546" lon="2.79933">
        <ele>55</ele>
        <time>2015-01-20T09:16:45Z</time>
      </trkpt>
      <trkpt lat="48.35455" lon="2.79931">
        <ele>55</ele>
        <time>2015-01-20T09:16:51Z</time>
      </trkpt>
      <trkpt lat="48.3545" lon="2.79929">
        <ele>55</ele>
        <time>2015-01-20T09:16:55Z</time>
      </trkpt>
      <trkpt lat="48.35445" lon="2.79928">
        <ele>55</ele>
        <time>2015-01-20T09:17:00Z</time>
      </trkpt>
      <trkpt lat="48.35426" lon="2.79924">
        <ele>55</ele>
        <time>2015-01-20T09:17:21Z</time>
      </trkpt>
      <trkpt lat="48.35416" lon="2.79927">
        <ele>54</ele>
        <time>2015-01-20T09:17:31Z</time>
      </trkpt>
      <trkpt lat="48.3541" lon="2.79923">
        <ele>54</ele>
        <time>2015-01-20T09:17:35Z</time>
      </trkpt>
      <trkpt lat="48.35407" lon="2.79918">
        <ele>53</ele>
        <time>2015-01-20T09:17:40Z</time>
      </trkpt>
      <trkpt lat="48.35401" lon="2.79917">
        <ele>53</ele>
        <time>2015-01-20T09:17:45Z</time>
      </trkpt>
      <trkpt lat="48.35394" lon="2.79919">
        <ele>53</ele>
        <time>2015-01-20T09:17:51Z</time>
      </trkpt>
      <trkpt lat="48.35392" lon="2.79916">
        <ele>53</ele>
        <time>2015-01-20T09:17:57Z</time>
      </trkpt>
      <trkpt lat="48.35387" lon="2.79917">
        <ele>53</ele>
        <time>2015-01-20T09:18:02Z</time>
      </trkpt>
      <trkpt lat="48.35344" lon="2.79922">
        <ele>54</ele>
        <time>2015-01-20T09:18:36Z</time>
      </trkpt>
      <trkpt lat="48.35316" lon="2.79941">
        <ele>55</ele>
        <time>2015-01-20T09:19:07Z</time>
      </trkpt>
      <trkpt lat="48.35271" lon="2.79959">
        <ele>55</ele>
        <time>2015-01-20T09:19:45Z</time>
      </trkpt>
      <trkpt lat="48.3525" lon="2.79968">
        <ele>53</ele>
        <time>2015-01-20T09:20:05Z</time>
      </trkpt>
      <trkpt lat="48.35244" lon="2.79965">
        <ele>53</ele>
        <time>2015-01-20T09:20:12Z</time>
      </trkpt>
      <trkpt lat="48.35234" lon="2.79971">
        <ele>53</ele>
        <time>2015-01-20T09:20:22Z</time>
      </trkpt>
      <trkpt lat="48.35231" lon="2.79966">
        <ele>53</ele>
        <time>2015-01-20T09:20:26Z</time>
      </trkpt>
      <trkpt lat="48.35227" lon="2.79963">
        <ele>53</ele>
        <time>2015-01-20T09:20:30Z</time>
      </trkpt>
      <trkpt lat="48.35231" lon="2.79957">
        <ele>53</ele>
        <time>2015-01-20T09:20:37Z</time>
      </trkpt>
      <trkpt lat="48.35233" lon="2.79952">
        <ele>53</ele>
        <time>2015-01-20T09:20:47Z</time>
      </trkpt>
      <trkpt lat="48.35234" lon="2.79948">
        <ele>54</ele>
        <time>2015-01-20T09:20:59Z</time>
      </trkpt>
      <trkpt lat="48.35237" lon="2.79945">
        <ele>54</ele>
        <time>2015-01-20T09:21:11Z</time>
      </trkpt>
      <trkpt lat="48.35237" lon="2.79942">
        <ele>54</ele>
        <time>2015-01-20T09:21:17Z</time>
      </trkpt>
      <trkpt lat="48.35235" lon="2.79935">
        <ele>55</ele>
        <time>2015-01-20T09:21:31Z</time>
      </trkpt>
      <trkpt lat="48.3523" lon="2.79943">
        <ele>55</ele>
        <time>2015-01-20T09:21:37Z</time>
      </trkpt>
      <trkpt lat="48.35219" lon="2.79946">
        <ele>55</ele>
        <time>2015-01-20T09:21:42Z</time>
      </trkpt>
      <trkpt lat="48.35203" lon="2.79949">
        <ele>55</ele>
        <time>2015-01-20T09:21:49Z</time>
      </trkpt>
      <trkpt lat="48.35172" lon="2.79928">
        <ele>55</ele>
        <time>2015-01-20T09:22:08Z</time>
      </trkpt>
      <trkpt lat="48.35168" lon="2.79923">
        <ele>55</ele>
        <time>2015-01-20T09:22:11Z</time>
      </trkpt>
      <trkpt lat="48.35149" lon="2.79907">
        <ele>54</ele>
        <time>2015-01-20T09:22:24Z</time>
      </trkpt>
      <trkpt lat="48.35138" lon="2.79886">
        <ele>53</ele>
        <time>2015-01-20T09:22:38Z</time>
      </trkpt>
      <trkpt lat="48.35132" lon="2.79882">
        <ele>53</ele>
        <time>2015-01-20T09:22:43Z</time>
      </trkpt>
      <trkpt lat="48.35098" lon="2.79837">
        <ele>53</ele>
        <time>2015-01-20T09:23:15Z</time>
      </trkpt>
      <trkpt lat="48.35093" lon="2.79832">
        <ele>54</ele>
        <time>2015-01-20T09:23:18Z</time>
      </trkpt>
      <trkpt lat="48.3508" lon="2.79818">
        <ele>55</ele>
        <time>2015-01-20T09:23:30Z</time>
      </trkpt>
      <trkpt lat="48.35076" lon="2.79813">
        <ele>55</ele>
        <time>2015-01-20T09:23:34Z</time>
      </trkpt>
      <trkpt lat="48.3506" lon="2.79786">
        <ele>55</ele>
        <time>2015-01-20T09:23:57Z</time>
      </trkpt>
      <trkpt lat="48.35049" lon="2.79769">
        <ele>56</ele>
        <time>2015-01-20T09:24:09Z</time>
      </trkpt>
      <trkpt lat="48.35044" lon="2.79765">
        <ele>56</ele>
        <time>2015-01-20T09:24:14Z</time>
      </trkpt>
      <trkpt lat="48.35041" lon="2.79763">
        <ele>56</ele>
        <time>2015-01-20T09:24:17Z</time>
      </trkpt>
      <trkpt lat="48.35027" lon="2.79747">
        <ele>56</ele>
        <time>2015-01-20T09:24:29Z</time>
      </trkpt>
      <trkpt lat="48.35022" lon="2.79743">
        <ele>56</ele>
        <time>2015-01-20T09:24:33Z</time>
      </trkpt>
      <trkpt lat="48.35018" lon="2.79739">
        <ele>55</ele>
        <time>2015-01-20T09:24:38Z</time>
      </trkpt>
      <trkpt lat="48.35006" lon="2.79724">
        <ele>55</ele>
        <time>2015-01-20T09:24:51Z</time>
      </trkpt>
      <trkpt lat="48.35002" lon="2.79721">
        <ele>55</ele>
        <time>2015-01-20T09:24:55Z</time>
      </trkpt>
      <trkpt lat="48.34997" lon="2.79716">
        <ele>55</ele>
        <time>2015-01-20T09:24:59Z</time>
      </trkpt>
      <trkpt lat="48.34994" lon="2.79709">
        <ele>55</ele>
        <time>2015-01-20T09:25:07Z</time>
      </trkpt>
      <trkpt lat="48.3498" lon="2.79686">
        <ele>54</ele>
        <time>2015-01-20T09:25:29Z</time>
      </trkpt>
      <trkpt lat="48.34966" lon="2.79665">
        <ele>54</ele>
        <time>2015-01-20T09:25:47Z</time>
      </trkpt>
      <trkpt lat="48.34956" lon="2.79657">
        <ele>55</ele>
        <time>2015-01-20T09:25:56Z</time>
      </trkpt>
      <trkpt lat="48.3495" lon="2.79646">
        <ele>55</ele>
        <time>2015-01-20T09:26:03Z</time>
      </trkpt>
      <trkpt lat="48.34935" lon="2.79635">
        <ele>58</ele>
        <time>2015-01-20T09:26:16Z</time>
      </trkpt>
      <trkpt lat="48.34922" lon="2.7962">
        <ele>55</ele>
        <time>2015-01-20T09:26:31Z</time>
      </trkpt>
      <trkpt lat="48.34913" lon="2.79607">
        <ele>55</ele>
        <time>2015-01-20T09:26:45Z</time>
      </trkpt>
      <trkpt lat="48.34904" lon="2.79599">
        <ele>56</ele>
        <time>2015-01-20T09:26:55Z</time>
      </trkpt>
      <trkpt lat="48.349" lon="2.79593">
        <ele>57</ele>
        <time>2015-01-20T09:27:00Z</time>
      </trkpt>
      <trkpt lat="48.34884" lon="2.79573">
        <ele>55</ele>
        <time>2015-01-20T09:27:17Z</time>
      </trkpt>
      <trkpt lat="48.34883" lon="2.79567">
        <ele>54</ele>
        <time>2015-01-20T09:27:25Z</time>
      </trkpt>
      <trkpt lat="48.3488" lon="2.79561">
        <ele>54</ele>
        <time>2015-01-20T09:27:30Z</time>
      </trkpt>
      <trkpt lat="48.34874" lon="2.79554">
        <ele>54</ele>
        <time>2015-01-20T09:27:35Z</time>
      </trkpt>
      <trkpt lat="48.3487" lon="2.79549">
        <ele>54</ele>
        <time>2015-01-20T09:27:39Z</time>
      </trkpt>
      <trkpt lat="48.34867" lon="2.79542">
        <ele>54</ele>
        <time>2015-01-20T09:27:45Z</time>
      </trkpt>
      <trkpt lat="48.34841" lon="2.79511">
        <ele>53</ele>
        <time>2015-01-20T09:28:16Z</time>
      </trkpt>
      <trkpt lat="48.34816" lon="2.79481">
        <ele>53</ele>
        <time>2015-01-20T09:28:51Z</time>
      </trkpt>
      <trkpt lat="48.34801" lon="2.79465">
        <ele>53</ele>
        <time>2015-01-20T09:29:06Z</time>
      </trkpt>
      <trkpt lat="48.34795" lon="2.79455">
        <ele>53</ele>
        <time>2015-01-20T09:29:13Z</time>
      </trkpt>
      <trkpt lat="48.34786" lon="2.79448">
        <ele>53</ele>
        <time>2015-01-20T09:29:21Z</time>
      </trkpt>
      <trkpt lat="48.34778" lon="2.79437">
        <ele>52</ele>
        <time>2015-01-20T09:29:31Z</time>
      </trkpt>
      <trkpt lat="48.34774" lon="2.79432">
        <ele>52</ele>
        <time>2015-01-20T09:29:36Z</time>
      </trkpt>
      <trkpt lat="48.34767" lon="2.79423">
        <ele>52</ele>
        <time>2015-01-20T09:29:45Z</time>
      </trkpt>
      <trkpt lat="48.34762" lon="2.79419">
        <ele>53</ele>
        <time>2015-01-20T09:29:50Z</time>
      </trkpt>
      <trkpt lat="48.34754" lon="2.79411">
        <ele>54</ele>
        <time>2015-01-20T09:30:00Z</time>
      </trkpt>
      <trkpt lat="48.3475" lon="2.79405">
        <ele>54</ele>
        <time>2015-01-20T09:30:06Z</time>
      </trkpt>
      <trkpt lat="48.34748" lon="2.79401">
        <ele>53</ele>
        <time>2015-01-20T09:30:15Z</time>
      </trkpt>
      <trkpt lat="48.34748" lon="2.79396">
        <ele>53</ele>
        <time>2015-01-20T09:30:26Z</time>
      </trkpt>
      <trkpt lat="48.34745" lon="2.79395">
        <ele>53</ele>
        <time>2015-01-20T09:30:32Z</time>
      </trkpt>
      <trkpt lat="48.34743" lon="2.79396">
        <ele>53</ele>
        <time>2015-01-20T09:30:38Z</time>
      </trkpt>
      <trkpt lat="48.34743" lon="2.79402">
        <ele>53</ele>
        <time>2015-01-20T09:31:05Z</time>
      </trkpt>
      <trkpt lat="48.34739" lon="2.79405">
        <ele>53</ele>
        <time>2015-01-20T09:31:27Z</time>
      </trkpt>
      <trkpt lat="48.34725" lon="2.79447">
        <ele>50</ele>
        <time>2015-01-20T09:32:02Z</time>
      </trkpt>
      <trkpt lat="48.34721" lon="2.79464">
        <ele>49</ele>
        <time>2015-01-20T09:32:09Z</time>
      </trkpt>
      <trkpt lat="48.34714" lon="2.79473">
        <ele>49</ele>
        <time>2015-01-20T09:32:14Z</time>
      </trkpt>
      <trkpt lat="48.347" lon="2.7948">
        <ele>47</ele>
        <time>2015-01-20T09:32:29Z</time>
      </trkpt>
      <trkpt lat="48.34688" lon="2.79502">
        <ele>47</ele>
        <time>2015-01-20T09:32:45Z</time>
      </trkpt>
      <trkpt lat="48.34685" lon="2.79508">
        <ele>46</ele>
        <time>2015-01-20T09:32:49Z</time>
      </trkpt>
      <trkpt lat="48.34682" lon="2.79513">
        <ele>46</ele>
        <time>2015-01-20T09:32:55Z</time>
      </trkpt>
      <trkpt lat="48.34667" lon="2.79537">
        <ele>48</ele>
        <time>2015-01-20T09:33:16Z</time>
      </trkpt>
      <trkpt lat="48.34663" lon="2.7954">
        <ele>46</ele>
        <time>2015-01-20T09:33:23Z</time>
      </trkpt>
      <trkpt lat="48.34645" lon="2.79582">
        <ele>48</ele>
        <time>2015-01-20T09:33:47Z</time>
      </trkpt>
      <trkpt lat="48.34642" lon="2.79588">
        <ele>48</ele>
        <time>2015-01-20T09:33:50Z</time>
      </trkpt>
      <trkpt lat="48.3464" lon="2.79595">
        <ele>48</ele>
        <time>2015-01-20T09:33:55Z</time>
      </trkpt>
      <trkpt lat="48.34638" lon="2.79602">
        <ele>48</ele>
        <time>2015-01-20T09:34:00Z</time>
      </trkpt>
      <trkpt lat="48.34631" lon="2.79612">
        <ele>47</ele>
        <time>2015-01-20T09:34:08Z</time>
      </trkpt>
      <trkpt lat="48.34626" lon="2.79613">
        <ele>46</ele>
        <time>2015-01-20T09:34:13Z</time>
      </trkpt>
      <trkpt lat="48.34621" lon="2.79613">
        <ele>46</ele>
        <time>2015-01-20T09:34:18Z</time>
      </trkpt>
      <trkpt lat="48.34614" lon="2.79612">
        <ele>47</ele>
        <time>2015-01-20T09:34:31Z</time>
      </trkpt>
      <trkpt lat="48.3461" lon="2.79607">
        <ele>48</ele>
        <time>2015-01-20T09:34:42Z</time>
      </trkpt>
      <trkpt lat="48.34598" lon="2.79596">
        <ele>48</ele>
        <time>2015-01-20T09:34:54Z</time>
      </trkpt>
      <trkpt lat="48.34593" lon="2.79594">
        <ele>49</ele>
        <time>2015-01-20T09:35:02Z</time>
      </trkpt>
      <trkpt lat="48.34588" lon="2.7959">
        <ele>49</ele>
        <time>2015-01-20T09:35:08Z</time>
      </trkpt>
      <trkpt lat="48.34579" lon="2.79586">
        <ele>50</ele>
        <time>2015-01-20T09:35:19Z</time>
      </trkpt>
      <trkpt lat="48.34559" lon="2.79561">
        <ele>52</ele>
        <time>2015-01-20T09:35:35Z</time>
      </trkpt>
      <trkpt lat="48.34555" lon="2.79555">
        <ele>52</ele>
        <time>2015-01-20T09:35:39Z</time>
      </trkpt>
      <trkpt lat="48.34524" lon="2.79516">
        <ele>52</ele>
        <time>2015-01-20T09:36:11Z</time>
      </trkpt>
      <trkpt lat="48.34516" lon="2.79504">
        <ele>53</ele>
        <time>2015-01-20T09:36:18Z</time>
      </trkpt>
      <trkpt lat="48.34514" lon="2.79511">
        <ele>53</ele>
        <time>2015-01-20T09:36:24Z</time>
      </trkpt>
      <trkpt lat="48.34508" lon="2.79507">
        <ele>52</ele>
        <time>2015-01-20T09:36:31Z</time>
      </trkpt>
      <trkpt lat="48.3449" lon="2.7948">
        <ele>51</ele>
        <time>2015-01-20T09:36:55Z</time>
      </trkpt>
      <trkpt lat="48.34463" lon="2.79458">
        <ele>52</ele>
        <time>2015-01-20T09:37:19Z</time>
      </trkpt>
      <trkpt lat="48.34437" lon="2.79438">
        <ele>52</ele>
        <time>2015-01-20T09:37:48Z</time>
      </trkpt>
      <trkpt lat="48.34434" lon="2.79431">
        <ele>52</ele>
        <time>2015-01-20T09:37:51Z</time>
      </trkpt>
      <trkpt lat="48.3443" lon="2.79426">
        <ele>52</ele>
        <time>2015-01-20T09:37:54Z</time>
      </trkpt>
      <trkpt lat="48.34399" lon="2.794">
        <ele>53</ele>
        <time>2015-01-20T09:38:25Z</time>
      </trkpt>
      <trkpt lat="48.34383" lon="2.79383">
        <ele>52</ele>
        <time>2015-01-20T09:38:42Z</time>
      </trkpt>
      <trkpt lat="48.34358" lon="2.79351">
        <ele>51</ele>
        <time>2015-01-20T09:39:15Z</time>
      </trkpt>
      <trkpt lat="48.34353" lon="2.79349">
        <ele>51</ele>
        <time>2015-01-20T09:39:20Z</time>
      </trkpt>
      <trkpt lat="48.34349" lon="2.79343">
        <ele>51</ele>
        <time>2015-01-20T09:39:26Z</time>
      </trkpt>
      <trkpt lat="48.34344" lon="2.79341">
        <ele>51</ele>
        <time>2015-01-20T09:39:34Z</time>
      </trkpt>
      <trkpt lat="48.3434" lon="2.79336">
        <ele>51</ele>
        <time>2015-01-20T09:39:40Z</time>
      </trkpt>
      <trkpt lat="48.34337" lon="2.79331">
        <ele>51</ele>
        <time>2015-01-20T09:39:45Z</time>
      </trkpt>
      <trkpt lat="48.34334" lon="2.79325">
        <ele>51</ele>
        <time>2015-01-20T09:39:50Z</time>
      </trkpt>
      <trkpt lat="48.34313" lon="2.79287">
        <ele>51</ele>
        <time>2015-01-20T09:40:24Z</time>
      </trkpt>
      <trkpt lat="48.34286" lon="2.79243">
        <ele>53</ele>
        <time>2015-01-20T09:40:55Z</time>
      </trkpt>
      <trkpt lat="48.34275" lon="2.7923">
        <ele>53</ele>
        <time>2015-01-20T09:41:09Z</time>
      </trkpt>
      <trkpt lat="48.34244" lon="2.79199">
        <ele>53</ele>
        <time>2015-01-20T09:41:42Z</time>
      </trkpt>
      <trkpt lat="48.34241" lon="2.79193">
        <ele>53</ele>
        <time>2015-01-20T09:41:48Z</time>
      </trkpt>
      <trkpt lat="48.34233" lon="2.79184">
        <ele>54</ele>
        <time>2015-01-20T09:41:58Z</time>
      </trkpt>
      <trkpt lat="48.34208" lon="2.79156">
        <ele>55</ele>
        <time>2015-01-20T09:42:28Z</time>
      </trkpt>
      <trkpt lat="48.34195" lon="2.79145">
        <ele>55</ele>
        <time>2015-01-20T09:42:42Z</time>
      </trkpt>
      <trkpt lat="48.3419" lon="2.79146">
        <ele>55</ele>
        <time>2015-01-20T09:42:46Z</time>
      </trkpt>
      <trkpt lat="48.34185" lon="2.79142">
        <ele>54</ele>
        <time>2015-01-20T09:42:52Z</time>
      </trkpt>
      <trkpt lat="48.34182" lon="2.79136">
        <ele>54</ele>
        <time>2015-01-20T09:42:57Z</time>
      </trkpt>
      <trkpt lat="48.34177" lon="2.79134">
        <ele>54</ele>
        <time>2015-01-20T09:43:02Z</time>
      </trkpt>
      <trkpt lat="48.34169" lon="2.79124">
        <ele>54</ele>
        <time>2015-01-20T09:43:11Z</time>
      </trkpt>
      <trkpt lat="48.34157" lon="2.79098">
        <ele>53</ele>
        <time>2015-01-20T09:43:27Z</time>
      </trkpt>
      <trkpt lat="48.34153" lon="2.79094">
        <ele>53</ele>
        <time>2015-01-20T09:43:34Z</time>
      </trkpt>
      <trkpt lat="48.34149" lon="2.79095">
        <ele>53</ele>
        <time>2015-01-20T09:43:36Z</time>
      </trkpt>
      <trkpt lat="48.34144" lon="2.79094">
        <ele>53</ele>
        <time>2015-01-20T09:43:38Z</time>
      </trkpt>
      <trkpt lat="48.34131" lon="2.79077">
        <ele>53</ele>
        <time>2015-01-20T09:43:49Z</time>
      </trkpt>
      <trkpt lat="48.34127" lon="2.79073">
        <ele>52</ele>
        <time>2015-01-20T09:43:56Z</time>
      </trkpt>
      <trkpt lat="48.34107" lon="2.79058">
        <ele>52</ele>
        <time>2015-01-20T09:44:15Z</time>
      </trkpt>
      <trkpt lat="48.34099" lon="2.79045">
        <ele>52</ele>
        <time>2015-01-20T09:44:24Z</time>
      </trkpt>
      <trkpt lat="48.34096" lon="2.7904">
        <ele>51</ele>
        <time>2015-01-20T09:44:32Z</time>
      </trkpt>
      <trkpt lat="48.34089" lon="2.79027">
        <ele>51</ele>
        <time>2015-01-20T09:44:40Z</time>
      </trkpt>
      <trkpt lat="48.34076" lon="2.7902">
        <ele>51</ele>
        <time>2015-01-20T09:44:53Z</time>
      </trkpt>
      <trkpt lat="48.3406" lon="2.79006">
        <ele>52</ele>
        <time>2015-01-20T09:45:11Z</time>
      </trkpt>
      <trkpt lat="48.3405" lon="2.79007">
        <ele>52</ele>
        <time>2015-01-20T09:45:18Z</time>
      </trkpt>
      <trkpt lat="48.34046" lon="2.79011">
        <ele>52</ele>
        <time>2015-01-20T09:45:22Z</time>
      </trkpt>
      <trkpt lat="48.34042" lon="2.79013">
        <ele>52</ele>
        <time>2015-01-20T09:45:27Z</time>
      </trkpt>
      <trkpt lat="48.34027" lon="2.79005">
        <ele>51</ele>
        <time>2015-01-20T09:45:42Z</time>
      </trkpt>
      <trkpt lat="48.34023" lon="2.79002">
        <ele>51</ele>
        <time>2015-01-20T09:45:46Z</time>
      </trkpt>
      <trkpt lat="48.34021" lon="2.78995">
        <ele>51</ele>
        <time>2015-01-20T09:45:50Z</time>
      </trkpt>
      <trkpt lat="48.3402" lon="2.79">
        <ele>51</ele>
        <time>2015-01-20T09:46:25Z</time>
      </trkpt>
      <trkpt lat="48.34022" lon="2.78996">
        <ele>51</ele>
        <time>2015-01-20T09:46:47Z</time>
      </trkpt>
      <trkpt lat="48.34026" lon="2.78989">
        <ele>52</ele>
        <time>2015-01-20T09:47:00Z</time>
      </trkpt>
      <trkpt lat="48.34027" lon="2.78982">
        <ele>52</ele>
        <time>2015-01-20T09:47:08Z</time>
      </trkpt>
      <trkpt lat="48.34023" lon="2.78977">
        <ele>52</ele>
        <time>2015-01-20T09:47:12Z</time>
      </trkpt>
      <trkpt lat="48.34028" lon="2.78976">
        <ele>52</ele>
        <time>2015-01-20T09:47:16Z</time>
      </trkpt>
      <trkpt lat="48.34036" lon="2.78968">
        <ele>52</ele>
        <time>2015-01-20T09:47:27Z</time>
      </trkpt>
      <trkpt lat="48.34044" lon="2.78961">
        <ele>52</ele>
        <time>2015-01-20T09:47:31Z</time>
      </trkpt>
      <trkpt lat="48.34051" lon="2.78952">
        <ele>51</ele>
        <time>2015-01-20T09:47:41Z</time>
      </trkpt>
      <trkpt lat="48.34054" lon="2.78947">
        <ele>51</ele>
        <time>2015-01-20T09:47:47Z</time>
      </trkpt>
      <trkpt lat="48.34052" lon="2.78917">
        <ele>51</ele>
        <time>2015-01-20T09:48:21Z</time>
      </trkpt>
      <trkpt lat="48.34054" lon="2.78927">
        <ele>50</ele>
        <time>2015-01-20T09:49:19Z</time>
      </trkpt>
      <trkpt lat="48.34054" lon="2.78954">
        <ele>50</ele>
        <time>2015-01-20T09:49:38Z</time>
      </trkpt>
      <trkpt lat="48.34049" lon="2.78967">
        <ele>51</ele>
        <time>2015-01-20T09:49:53Z</time>
      </trkpt>
      <trkpt lat="48.34043" lon="2.78977">
        <ele>50</ele>
        <time>2015-01-20T09:50:03Z</time>
      </trkpt>
      <trkpt lat="48.34033" lon="2.78978">
        <ele>50</ele>
        <time>2015-01-20T09:50:11Z</time>
      </trkpt>
      <trkpt lat="48.34025" lon="2.78988">
        <ele>51</ele>
        <time>2015-01-20T09:50:21Z</time>
      </trkpt>
      <trkpt lat="48.34022" lon="2.78994">
        <ele>51</ele>
        <time>2015-01-20T09:50:27Z</time>
      </trkpt>
      <trkpt lat="48.3402" lon="2.78995">
        <ele>51</ele>
        <time>2015-01-20T09:50:32Z</time>
      </trkpt>
      <trkpt lat="48.34018" lon="2.78998">
        <ele>51</ele>
        <time>2015-01-20T09:50:49Z</time>
      </trkpt>
      <trkpt lat="48.34016" lon="2.78989">
        <ele>51</ele>
        <time>2015-01-20T09:51:43Z</time>
      </trkpt>
      <trkpt lat="48.34014" lon="2.78986">
        <ele>51</ele>
        <time>2015-01-20T09:52:06Z</time>
      </trkpt>
      <trkpt lat="48.34012" lon="2.78994">
        <ele>51</ele>
        <time>2015-01-20T09:52:24Z</time>
      </trkpt>
      <trkpt lat="48.34015" lon="2.78994">
        <ele>51</ele>
        <time>2015-01-20T09:52:41Z</time>
      </trkpt>
      <trkpt lat="48.34018" lon="2.78996">
        <ele>52</ele>
        <time>2015-01-20T09:54:42Z</time>
      </trkpt>
      <trkpt lat="48.34036" lon="2.79007">
        <ele>52</ele>
        <time>2015-01-20T09:55:02Z</time>
      </trkpt>
      <trkpt lat="48.34033" lon="2.7901">
        <ele>51</ele>
        <time>2015-01-20T09:55:58Z</time>
      </trkpt>
      <trkpt lat="48.34029" lon="2.79004">
        <ele>51</ele>
        <time>2015-01-20T09:56:04Z</time>
      </trkpt>
      <trkpt lat="48.34026" lon="2.78998">
        <ele>51</ele>
        <time>2015-01-20T09:56:08Z</time>
      </trkpt>
      <trkpt lat="48.34019" lon="2.78982">
        <ele>51</ele>
        <time>2015-01-20T09:56:22Z</time>
      </trkpt>
      <trkpt lat="48.34017" lon="2.78984">
        <ele>51</ele>
        <time>2015-01-20T09:56:36Z</time>
      </trkpt>
      <trkpt lat="48.34011" lon="2.78982">
        <ele>51</ele>
        <time>2015-01-20T09:56:41Z</time>
      </trkpt>
      <trkpt lat="48.34006" lon="2.78982">
        <ele>51</ele>
        <time>2015-01-20T09:56:45Z</time>
      </trkpt>
      <trkpt lat="48.34001" lon="2.78982">
        <ele>51</ele>
        <time>2015-01-20T09:56:53Z</time>
      </trkpt>
      <trkpt lat="48.33998" lon="2.78975">
        <ele>51</ele>
        <time>2015-01-20T09:57:06Z</time>
      </trkpt>
      <trkpt lat="48.3399" lon="2.78965">
        <ele>51</ele>
        <time>2015-01-20T09:57:15Z</time>
      </trkpt>
      <trkpt lat="48.33987" lon="2.78961">
        <ele>50</ele>
        <time>2015-01-20T09:57:22Z</time>
      </trkpt>
      <trkpt lat="48.3397" lon="2.78956">
        <ele>50</ele>
        <time>2015-01-20T09:57:37Z</time>
      </trkpt>
      <trkpt lat="48.33967" lon="2.7895">
        <ele>50</ele>
        <time>2015-01-20T09:57:40Z</time>
      </trkpt>
      <trkpt lat="48.33962" lon="2.78947">
        <ele>50</ele>
        <time>2015-01-20T09:57:45Z</time>
      </trkpt>
      <trkpt lat="48.3396" lon="2.78941">
        <ele>49</ele>
        <time>2015-01-20T09:57:51Z</time>
      </trkpt>
      <trkpt lat="48.33943" lon="2.78924">
        <ele>50</ele>
        <time>2015-01-20T09:58:10Z</time>
      </trkpt>
      <trkpt lat="48.33938" lon="2.78923">
        <ele>50</ele>
        <time>2015-01-20T09:58:15Z</time>
      </trkpt>
      <trkpt lat="48.33934" lon="2.78918">
        <ele>50</ele>
        <time>2015-01-20T09:58:23Z</time>
      </trkpt>
      <trkpt lat="48.33891" lon="2.78919">
        <ele>50</ele>
        <time>2015-01-20T09:58:54Z</time>
      </trkpt>
      <trkpt lat="48.33887" lon="2.78916">
        <ele>50</ele>
        <time>2015-01-20T09:58:58Z</time>
      </trkpt>
      <trkpt lat="48.33881" lon="2.78916">
        <ele>50</ele>
        <time>2015-01-20T09:59:01Z</time>
      </trkpt>
      <trkpt lat="48.33858" lon="2.78905">
        <ele>48</ele>
        <time>2015-01-20T09:59:24Z</time>
      </trkpt>
      <trkpt lat="48.33855" lon="2.78899">
        <ele>48</ele>
        <time>2015-01-20T09:59:28Z</time>
      </trkpt>
      <trkpt lat="48.33854" lon="2.78895">
        <ele>49</ele>
        <time>2015-01-20T09:59:32Z</time>
      </trkpt>
      <trkpt lat="48.33846" lon="2.78885">
        <ele>50</ele>
        <time>2015-01-20T09:59:41Z</time>
      </trkpt>
      <trkpt lat="48.3383" lon="2.78883">
        <ele>49</ele>
        <time>2015-01-20T09:59:53Z</time>
      </trkpt>
      <trkpt lat="48.33826" lon="2.78879">
        <ele>50</ele>
        <time>2015-01-20T09:59:59Z</time>
      </trkpt>
      <trkpt lat="48.33823" lon="2.78873">
        <ele>49</ele>
        <time>2015-01-20T10:00:04Z</time>
      </trkpt>
      <trkpt lat="48.33821" lon="2.78857">
        <ele>49</ele>
        <time>2015-01-20T10:00:14Z</time>
      </trkpt>
      <trkpt lat="48.33814" lon="2.78848">
        <ele>49</ele>
        <time>2015-01-20T10:00:25Z</time>
      </trkpt>
      <trkpt lat="48.33787" lon="2.7884">
        <ele>51</ele>
        <time>2015-01-20T10:00:49Z</time>
      </trkpt>
      <trkpt lat="48.33785" lon="2.78833">
        <ele>51</ele>
        <time>2015-01-20T10:00:54Z</time>
      </trkpt>
      <trkpt lat="48.33782" lon="2.78826">
        <ele>52</ele>
        <time>2015-01-20T10:00:59Z</time>
      </trkpt>
      <trkpt lat="48.33777" lon="2.78809">
        <ele>52</ele>
        <time>2015-01-20T10:01:09Z</time>
      </trkpt>
      <trkpt lat="48.33767" lon="2.78791">
        <ele>52</ele>
        <time>2015-01-20T10:01:26Z</time>
      </trkpt>
      <trkpt lat="48.33754" lon="2.78781">
        <ele>52</ele>
        <time>2015-01-20T10:01:39Z</time>
      </trkpt>
      <trkpt lat="48.33746" lon="2.78764">
        <ele>52</ele>
        <time>2015-01-20T10:01:51Z</time>
      </trkpt>
      <trkpt lat="48.33728" lon="2.78743">
        <ele>53</ele>
        <time>2015-01-20T10:02:09Z</time>
      </trkpt>
      <trkpt lat="48.33729" lon="2.78736">
        <ele>53</ele>
        <time>2015-01-20T10:02:12Z</time>
      </trkpt>
      <trkpt lat="48.33727" lon="2.78729">
        <ele>52</ele>
        <time>2015-01-20T10:02:16Z</time>
      </trkpt>
      <trkpt lat="48.33719" lon="2.78717">
        <ele>52</ele>
        <time>2015-01-20T10:02:30Z</time>
      </trkpt>
      <trkpt lat="48.33718" lon="2.78709">
        <ele>52</ele>
        <time>2015-01-20T10:02:36Z</time>
      </trkpt>
      <trkpt lat="48.33715" lon="2.78703">
        <ele>52</ele>
        <time>2015-01-20T10:02:41Z</time>
      </trkpt>
      <trkpt lat="48.33702" lon="2.78691">
        <ele>52</ele>
        <time>2015-01-20T10:02:51Z</time>
      </trkpt>
      <trkpt lat="48.33697" lon="2.78687">
        <ele>52</ele>
        <time>2015-01-20T10:02:55Z</time>
      </trkpt>
      <trkpt lat="48.3369" lon="2.78676">
        <ele>52</ele>
        <time>2015-01-20T10:03:04Z</time>
      </trkpt>
      <trkpt lat="48.33688" lon="2.78671">
        <ele>52</ele>
        <time>2015-01-20T10:03:08Z</time>
      </trkpt>
      <trkpt lat="48.33683" lon="2.78667">
        <ele>52</ele>
        <time>2015-01-20T10:03:12Z</time>
      </trkpt>
      <trkpt lat="48.33681" lon="2.78661">
        <ele>52</ele>
        <time>2015-01-20T10:03:16Z</time>
      </trkpt>
      <trkpt lat="48.33681" lon="2.78653">
        <ele>52</ele>
        <time>2015-01-20T10:03:21Z</time>
      </trkpt>
      <trkpt lat="48.33678" lon="2.78628">
        <ele>51</ele>
        <time>2015-01-20T10:03:32Z</time>
      </trkpt>
      <trkpt lat="48.33675" lon="2.78624">
        <ele>51</ele>
        <time>2015-01-20T10:03:36Z</time>
      </trkpt>
      <trkpt lat="48.3367" lon="2.78621">
        <ele>50</ele>
        <time>2015-01-20T10:03:41Z</time>
      </trkpt>
      <trkpt lat="48.33664" lon="2.78608">
        <ele>51</ele>
        <time>2015-01-20T10:03:52Z</time>
      </trkpt>
      <trkpt lat="48.33659" lon="2.78605">
        <ele>51</ele>
        <time>2015-01-20T10:03:57Z</time>
      </trkpt>
      <trkpt lat="48.33649" lon="2.78587">
        <ele>51</ele>
        <time>2015-01-20T10:04:10Z</time>
      </trkpt>
      <trkpt lat="48.33647" lon="2.7858">
        <ele>51</ele>
        <time>2015-01-20T10:04:13Z</time>
      </trkpt>
      <trkpt lat="48.33644" lon="2.78573">
        <ele>50</ele>
        <time>2015-01-20T10:04:18Z</time>
      </trkpt>
      <trkpt lat="48.3364" lon="2.78569">
        <ele>50</ele>
        <time>2015-01-20T10:04:22Z</time>
      </trkpt>
      <trkpt lat="48.33628" lon="2.78536">
        <ele>49</ele>
        <time>2015-01-20T10:04:46Z</time>
      </trkpt>
      <trkpt lat="48.33628" lon="2.78529">
        <ele>50</ele>
        <time>2015-01-20T10:04:50Z</time>
      </trkpt>
      <trkpt lat="48.33621" lon="2.78515">
        <ele>50</ele>
        <time>2015-01-20T10:05:04Z</time>
      </trkpt>
      <trkpt lat="48.33592" lon="2.7848">
        <ele>49</ele>
        <time>2015-01-20T10:05:37Z</time>
      </trkpt>
      <trkpt lat="48.33589" lon="2.78474">
        <ele>49</ele>
        <time>2015-01-20T10:05:42Z</time>
      </trkpt>
      <trkpt lat="48.33589" lon="2.78466">
        <ele>50</ele>
        <time>2015-01-20T10:05:49Z</time>
      </trkpt>
      <trkpt lat="48.33585" lon="2.78462">
        <ele>50</ele>
        <time>2015-01-20T10:05:55Z</time>
      </trkpt>
      <trkpt lat="48.33581" lon="2.78456">
        <ele>50</ele>
        <time>2015-01-20T10:06:00Z</time>
      </trkpt>
      <trkpt lat="48.33579" lon="2.7845">
        <ele>51</ele>
        <time>2015-01-20T10:06:08Z</time>
      </trkpt>
      <trkpt lat="48.33578" lon="2.78443">
        <ele>51</ele>
        <time>2015-01-20T10:06:14Z</time>
      </trkpt>
      <trkpt lat="48.33576" lon="2.78436">
        <ele>51</ele>
        <time>2015-01-20T10:06:21Z</time>
      </trkpt>
      <trkpt lat="48.33577" lon="2.78429">
        <ele>51</ele>
        <time>2015-01-20T10:06:34Z</time>
      </trkpt>
      <trkpt lat="48.33576" lon="2.78422">
        <ele>50</ele>
        <time>2015-01-20T10:06:46Z</time>
      </trkpt>
      <trkpt lat="48.33568" lon="2.78409">
        <ele>50</ele>
        <time>2015-01-20T10:06:54Z</time>
      </trkpt>
      <trkpt lat="48.33568" lon="2.78402">
        <ele>51</ele>
        <time>2015-01-20T10:06:58Z</time>
      </trkpt>
      <trkpt lat="48.33571" lon="2.78387">
        <ele>50</ele>
        <time>2015-01-20T10:07:07Z</time>
      </trkpt>
      <trkpt lat="48.33578" lon="2.78376">
        <ele>50</ele>
        <time>2015-01-20T10:07:15Z</time>
      </trkpt>
      <trkpt lat="48.33583" lon="2.78372">
        <ele>50</ele>
        <time>2015-01-20T10:07:20Z</time>
      </trkpt>
      <trkpt lat="48.33587" lon="2.78368">
        <ele>49</ele>
        <time>2015-01-20T10:07:25Z</time>
      </trkpt>
      <trkpt lat="48.33594" lon="2.78358">
        <ele>49</ele>
        <time>2015-01-20T10:07:34Z</time>
      </trkpt>
      <trkpt lat="48.33596" lon="2.78351">
        <ele>49</ele>
        <time>2015-01-20T10:07:39Z</time>
      </trkpt>
      <trkpt lat="48.33599" lon="2.78345">
        <ele>49</ele>
        <time>2015-01-20T10:07:43Z</time>
      </trkpt>
      <trkpt lat="48.33608" lon="2.78317">
        <ele>50</ele>
        <time>2015-01-20T10:08:00Z</time>
      </trkpt>
      <trkpt lat="48.33608" lon="2.7831">
        <ele>50</ele>
        <time>2015-01-20T10:08:03Z</time>
      </trkpt>
      <trkpt lat="48.33609" lon="2.78303">
        <ele>50</ele>
        <time>2015-01-20T10:08:06Z</time>
      </trkpt>
      <trkpt lat="48.33617" lon="2.7828">
        <ele>49</ele>
        <time>2015-01-20T10:08:20Z</time>
      </trkpt>
      <trkpt lat="48.33621" lon="2.78261">
        <ele>50</ele>
        <time>2015-01-20T10:08:31Z</time>
      </trkpt>
      <trkpt lat="48.33622" lon="2.78253">
        <ele>49</ele>
        <time>2015-01-20T10:08:36Z</time>
      </trkpt>
      <trkpt lat="48.33625" lon="2.78248">
        <ele>49</ele>
        <time>2015-01-20T10:08:41Z</time>
      </trkpt>
      <trkpt lat="48.33629" lon="2.78242">
        <ele>49</ele>
        <time>2015-01-20T10:08:45Z</time>
      </trkpt>
      <trkpt lat="48.3363" lon="2.78239">
        <ele>49</ele>
        <time>2015-01-20T10:08:47Z</time>
      </trkpt>
      <trkpt lat="48.33634" lon="2.78232">
        <ele>49</ele>
        <time>2015-01-20T10:08:52Z</time>
      </trkpt>
      <trkpt lat="48.33642" lon="2.78228">
        <ele>50</ele>
        <time>2015-01-20T10:09:01Z</time>
      </trkpt>
      <trkpt lat="48.33651" lon="2.78226">
        <ele>50</ele>
        <time>2015-01-20T10:09:08Z</time>
      </trkpt>
      <trkpt lat="48.33654" lon="2.78219">
        <ele>50</ele>
        <time>2015-01-20T10:09:15Z</time>
      </trkpt>
      <trkpt lat="48.33663" lon="2.78209">
        <ele>50</ele>
        <time>2015-01-20T10:09:23Z</time>
      </trkpt>
      <trkpt lat="48.33676" lon="2.78197">
        <ele>50</ele>
        <time>2015-01-20T10:09:36Z</time>
      </trkpt>
      <trkpt lat="48.33687" lon="2.78191">
        <ele>50</ele>
        <time>2015-01-20T10:09:47Z</time>
      </trkpt>
      <trkpt lat="48.3369" lon="2.78185">
        <ele>50</ele>
        <time>2015-01-20T10:09:50Z</time>
      </trkpt>
      <trkpt lat="48.33692" lon="2.78178">
        <ele>50</ele>
        <time>2015-01-20T10:09:54Z</time>
      </trkpt>
      <trkpt lat="48.33696" lon="2.78175">
        <ele>50</ele>
        <time>2015-01-20T10:09:59Z</time>
      </trkpt>
      <trkpt lat="48.33701" lon="2.78173">
        <ele>49</ele>
        <time>2015-01-20T10:10:07Z</time>
      </trkpt>
      <trkpt lat="48.33705" lon="2.78169">
        <ele>49</ele>
        <time>2015-01-20T10:10:12Z</time>
      </trkpt>
      <trkpt lat="48.33713" lon="2.78149">
        <ele>50</ele>
        <time>2015-01-20T10:10:26Z</time>
      </trkpt>
      <trkpt lat="48.33722" lon="2.78143">
        <ele>50</ele>
        <time>2015-01-20T10:10:34Z</time>
      </trkpt>
      <trkpt lat="48.33732" lon="2.78139">
        <ele>50</ele>
        <time>2015-01-20T10:10:43Z</time>
      </trkpt>
      <trkpt lat="48.33735" lon="2.78135">
        <ele>50</ele>
        <time>2015-01-20T10:10:48Z</time>
      </trkpt>
      <trkpt lat="48.33745" lon="2.7813">
        <ele>50</ele>
        <time>2015-01-20T10:10:56Z</time>
      </trkpt>
      <trkpt lat="48.33757" lon="2.78116">
        <ele>50</ele>
        <time>2015-01-20T10:11:13Z</time>
      </trkpt>
      <trkpt lat="48.3376" lon="2.78111">
        <ele>50</ele>
        <time>2015-01-20T10:11:19Z</time>
      </trkpt>
      <trkpt lat="48.33765" lon="2.78109">
        <ele>50</ele>
        <time>2015-01-20T10:11:23Z</time>
      </trkpt>
      <trkpt lat="48.33771" lon="2.78102">
        <ele>50</ele>
        <time>2015-01-20T10:11:30Z</time>
      </trkpt>
      <trkpt lat="48.33791" lon="2.78096">
        <ele>51</ele>
        <time>2015-01-20T10:11:49Z</time>
      </trkpt>
      <trkpt lat="48.33811" lon="2.78078">
        <ele>51</ele>
        <time>2015-01-20T10:12:08Z</time>
      </trkpt>
      <trkpt lat="48.33818" lon="2.78066">
        <ele>51</ele>
        <time>2015-01-20T10:12:18Z</time>
      </trkpt>
      <trkpt lat="48.33828" lon="2.78064">
        <ele>51</ele>
        <time>2015-01-20T10:12:26Z</time>
      </trkpt>
      <trkpt lat="48.33833" lon="2.78053">
        <ele>50</ele>
        <time>2015-01-20T10:12:34Z</time>
      </trkpt>
      <trkpt lat="48.33842" lon="2.78047">
        <ele>50</ele>
        <time>2015-01-20T10:12:42Z</time>
      </trkpt>
      <trkpt lat="48.33851" lon="2.78043">
        <ele>50</ele>
        <time>2015-01-20T10:12:52Z</time>
      </trkpt>
      <trkpt lat="48.33868" lon="2.7803">
        <ele>50</ele>
        <time>2015-01-20T10:13:06Z</time>
      </trkpt>
      <trkpt lat="48.33878" lon="2.78028">
        <ele>49</ele>
        <time>2015-01-20T10:13:15Z</time>
      </trkpt>
      <trkpt lat="48.3389" lon="2.78013">
        <ele>49</ele>
        <time>2015-01-20T10:13:29Z</time>
      </trkpt>
      <trkpt lat="48.33903" lon="2.77989">
        <ele>48</ele>
        <time>2015-01-20T10:13:46Z</time>
      </trkpt>
      <trkpt lat="48.33909" lon="2.77988">
        <ele>48</ele>
        <time>2015-01-20T10:13:52Z</time>
      </trkpt>
      <trkpt lat="48.33914" lon="2.77987">
        <ele>47</ele>
        <time>2015-01-20T10:13:56Z</time>
      </trkpt>
      <trkpt lat="48.33919" lon="2.77982">
        <ele>48</ele>
        <time>2015-01-20T10:14:02Z</time>
      </trkpt>
      <trkpt lat="48.33923" lon="2.77967">
        <ele>48</ele>
        <time>2015-01-20T10:14:12Z</time>
      </trkpt>
      <trkpt lat="48.3393" lon="2.77962">
        <ele>48</ele>
        <time>2015-01-20T10:14:21Z</time>
      </trkpt>
      <trkpt lat="48.33935" lon="2.77958">
        <ele>48</ele>
        <time>2015-01-20T10:14:25Z</time>
      </trkpt>
      <trkpt lat="48.33948" lon="2.77951">
        <ele>48</ele>
        <time>2015-01-20T10:14:35Z</time>
      </trkpt>
      <trkpt lat="48.33952" lon="2.77952">
        <ele>49</ele>
        <time>2015-01-20T10:14:39Z</time>
      </trkpt>
      <trkpt lat="48.33983" lon="2.77938">
        <ele>49</ele>
        <time>2015-01-20T10:15:09Z</time>
      </trkpt>
      <trkpt lat="48.33989" lon="2.77939">
        <ele>48</ele>
        <time>2015-01-20T10:15:21Z</time>
      </trkpt>
      <trkpt lat="48.33992" lon="2.77945">
        <ele>48</ele>
        <time>2015-01-20T10:15:27Z</time>
      </trkpt>
      <trkpt lat="48.33996" lon="2.77949">
        <ele>48</ele>
        <time>2015-01-20T10:15:34Z</time>
      </trkpt>
      <trkpt lat="48.33998" lon="2.77956">
        <ele>48</ele>
        <time>2015-01-20T10:15:42Z</time>
      </trkpt>
      <trkpt lat="48.34001" lon="2.77963">
        <ele>47</ele>
        <time>2015-01-20T10:15:46Z</time>
      </trkpt>
      <trkpt lat="48.34011" lon="2.77979">
        <ele>47</ele>
        <time>2015-01-20T10:15:57Z</time>
      </trkpt>
      <trkpt lat="48.34014" lon="2.77981">
        <ele>47</ele>
        <time>2015-01-20T10:16:05Z</time>
      </trkpt>
      <trkpt lat="48.34024" lon="2.7798">
        <ele>46</ele>
        <time>2015-01-20T10:16:20Z</time>
      </trkpt>
      <trkpt lat="48.34032" lon="2.77971">
        <ele>46</ele>
        <time>2015-01-20T10:16:28Z</time>
      </trkpt>
      <trkpt lat="48.34036" lon="2.77966">
        <ele>46</ele>
        <time>2015-01-20T10:16:32Z</time>
      </trkpt>
      <trkpt lat="48.34049" lon="2.77959">
        <ele>48</ele>
        <time>2015-01-20T10:16:43Z</time>
      </trkpt>
      <trkpt lat="48.34055" lon="2.77958">
        <ele>48</ele>
        <time>2015-01-20T10:16:47Z</time>
      </trkpt>
      <trkpt lat="48.34061" lon="2.77956">
        <ele>48</ele>
        <time>2015-01-20T10:16:52Z</time>
      </trkpt>
      <trkpt lat="48.34066" lon="2.77953">
        <ele>48</ele>
        <time>2015-01-20T10:16:56Z</time>
      </trkpt>
      <trkpt lat="48.3407" lon="2.77951">
        <ele>49</ele>
        <time>2015-01-20T10:17:05Z</time>
      </trkpt>
      <trkpt lat="48.34075" lon="2.77949">
        <ele>49</ele>
        <time>2015-01-20T10:17:10Z</time>
      </trkpt>
      <trkpt lat="48.3409" lon="2.7794">
        <ele>48</ele>
        <time>2015-01-20T10:17:24Z</time>
      </trkpt>
      <trkpt lat="48.34096" lon="2.77939">
        <ele>48</ele>
        <time>2015-01-20T10:17:30Z</time>
      </trkpt>
      <trkpt lat="48.34101" lon="2.7794">
        <ele>48</ele>
        <time>2015-01-20T10:17:35Z</time>
      </trkpt>
      <trkpt lat="48.34106" lon="2.77941">
        <ele>48</ele>
        <time>2015-01-20T10:17:39Z</time>
      </trkpt>
      <trkpt lat="48.3413" lon="2.7793">
        <ele>50</ele>
        <time>2015-01-20T10:18:04Z</time>
      </trkpt>
      <trkpt lat="48.34137" lon="2.77938">
        <ele>50</ele>
        <time>2015-01-20T10:18:13Z</time>
      </trkpt>
      <trkpt lat="48.34141" lon="2.77942">
        <ele>49</ele>
        <time>2015-01-20T10:18:18Z</time>
      </trkpt>
      <trkpt lat="48.34145" lon="2.77956">
        <ele>48</ele>
        <time>2015-01-20T10:18:29Z</time>
      </trkpt>
      <trkpt lat="48.34144" lon="2.77964">
        <ele>48</ele>
        <time>2015-01-20T10:18:32Z</time>
      </trkpt>
      <trkpt lat="48.34137" lon="2.77975">
        <ele>48</ele>
        <time>2015-01-20T10:18:38Z</time>
      </trkpt>
      <trkpt lat="48.34138" lon="2.77983">
        <ele>48</ele>
        <time>2015-01-20T10:18:42Z</time>
      </trkpt>
      <trkpt lat="48.3414" lon="2.7799">
        <ele>47</ele>
        <time>2015-01-20T10:18:47Z</time>
      </trkpt>
      <trkpt lat="48.3414" lon="2.78004">
        <ele>47</ele>
        <time>2015-01-20T10:18:59Z</time>
      </trkpt>
      <trkpt lat="48.34142" lon="2.78011">
        <ele>47</ele>
        <time>2015-01-20T10:19:04Z</time>
      </trkpt>
      <trkpt lat="48.34145" lon="2.78017">
        <ele>47</ele>
        <time>2015-01-20T10:19:09Z</time>
      </trkpt>
      <trkpt lat="48.34148" lon="2.78022">
        <ele>47</ele>
        <time>2015-01-20T10:19:14Z</time>
      </trkpt>
      <trkpt lat="48.34147" lon="2.7803">
        <ele>47</ele>
        <time>2015-01-20T10:19:19Z</time>
      </trkpt>
      <trkpt lat="48.3415" lon="2.78031">
        <ele>47</ele>
        <time>2015-01-20T10:19:39Z</time>
      </trkpt>
      <trkpt lat="48.34148" lon="2.78026">
        <ele>49</ele>
        <time>2015-01-20T10:20:50Z</time>
      </trkpt>
      <trkpt lat="48.34149" lon="2.78022">
        <ele>49</ele>
        <time>2015-01-20T10:21:53Z</time>
      </trkpt>
      <trkpt lat="48.34151" lon="2.78016">
        <ele>49</ele>
        <time>2015-01-20T10:21:57Z</time>
      </trkpt>
      <trkpt lat="48.34149" lon="2.78009">
        <ele>49</ele>
        <time>2015-01-20T10:22:02Z</time>
      </trkpt>
      <trkpt lat="48.34145" lon="2.77996">
        <ele>50</ele>
        <time>2015-01-20T10:22:15Z</time>
      </trkpt>
      <trkpt lat="48.34143" lon="2.77991">
        <ele>50</ele>
        <time>2015-01-20T10:22:24Z</time>
      </trkpt>
      <trkpt lat="48.3414" lon="2.77945">
        <ele>49</ele>
        <time>2015-01-20T10:22:57Z</time>
      </trkpt>
      <trkpt lat="48.3414" lon="2.77938">
        <ele>49</ele>
        <time>2015-01-20T10:23:03Z</time>
      </trkpt>
      <trkpt lat="48.34135" lon="2.77939">
        <ele>49</ele>
        <time>2015-01-20T10:23:09Z</time>
      </trkpt>
      <trkpt lat="48.34131" lon="2.7794">
        <ele>49</ele>
        <time>2015-01-20T10:23:15Z</time>
      </trkpt>
      <trkpt lat="48.34121" lon="2.77945">
        <ele>49</ele>
        <time>2015-01-20T10:23:23Z</time>
      </trkpt>
      <trkpt lat="48.34112" lon="2.77949">
        <ele>49</ele>
        <time>2015-01-20T10:23:32Z</time>
      </trkpt>
      <trkpt lat="48.34107" lon="2.77946">
        <ele>49</ele>
        <time>2015-01-20T10:23:38Z</time>
      </trkpt>
      <trkpt lat="48.34104" lon="2.77941">
        <ele>49</ele>
        <time>2015-01-20T10:23:42Z</time>
      </trkpt>
      <trkpt lat="48.34098" lon="2.77929">
        <ele>49</ele>
        <time>2015-01-20T10:23:52Z</time>
      </trkpt>
      <trkpt lat="48.341" lon="2.77922">
        <ele>49</ele>
        <time>2015-01-20T10:23:58Z</time>
      </trkpt>
      <trkpt lat="48.34108" lon="2.77913">
        <ele>48</ele>
        <time>2015-01-20T10:24:10Z</time>
      </trkpt>
      <trkpt lat="48.34113" lon="2.77914">
        <ele>48</ele>
        <time>2015-01-20T10:24:17Z</time>
      </trkpt>
      <trkpt lat="48.34118" lon="2.77914">
        <ele>48</ele>
        <time>2015-01-20T10:24:24Z</time>
      </trkpt>
      <trkpt lat="48.34122" lon="2.77909">
        <ele>48</ele>
        <time>2015-01-20T10:24:30Z</time>
      </trkpt>
      <trkpt lat="48.34125" lon="2.77903">
        <ele>48</ele>
        <time>2015-01-20T10:24:35Z</time>
      </trkpt>
      <trkpt lat="48.34129" lon="2.77897">
        <ele>47</ele>
        <time>2015-01-20T10:24:40Z</time>
      </trkpt>
      <trkpt lat="48.34154" lon="2.77857">
        <ele>49</ele>
        <time>2015-01-20T10:25:11Z</time>
      </trkpt>
      <trkpt lat="48.34154" lon="2.77849">
        <ele>49</ele>
        <time>2015-01-20T10:25:17Z</time>
      </trkpt>
      <trkpt lat="48.34159" lon="2.77844">
        <ele>49</ele>
        <time>2015-01-20T10:25:24Z</time>
      </trkpt>
      <trkpt lat="48.34163" lon="2.77843">
        <ele>49</ele>
        <time>2015-01-20T10:25:29Z</time>
      </trkpt>
      <trkpt lat="48.34177" lon="2.77834">
        <ele>50</ele>
        <time>2015-01-20T10:25:44Z</time>
      </trkpt>
      <trkpt lat="48.34182" lon="2.77831">
        <ele>49</ele>
        <time>2015-01-20T10:25:49Z</time>
      </trkpt>
      <trkpt lat="48.34189" lon="2.77819">
        <ele>48</ele>
        <time>2015-01-20T10:25:58Z</time>
      </trkpt>
      <trkpt lat="48.34194" lon="2.77815">
        <ele>48</ele>
        <time>2015-01-20T10:26:03Z</time>
      </trkpt>
      <trkpt lat="48.34204" lon="2.77814">
        <ele>49</ele>
        <time>2015-01-20T10:26:14Z</time>
      </trkpt>
      <trkpt lat="48.34239" lon="2.77794">
        <ele>49</ele>
        <time>2015-01-20T10:26:47Z</time>
      </trkpt>
      <trkpt lat="48.34247" lon="2.77786">
        <ele>49</ele>
        <time>2015-01-20T10:26:58Z</time>
      </trkpt>
      <trkpt lat="48.34252" lon="2.77781">
        <ele>49</ele>
        <time>2015-01-20T10:27:03Z</time>
      </trkpt>
      <trkpt lat="48.34266" lon="2.77774">
        <ele>48</ele>
        <time>2015-01-20T10:27:15Z</time>
      </trkpt>
      <trkpt lat="48.34271" lon="2.77765">
        <ele>48</ele>
        <time>2015-01-20T10:27:22Z</time>
      </trkpt>
      <trkpt lat="48.34274" lon="2.77761">
        <ele>48</ele>
        <time>2015-01-20T10:27:25Z</time>
      </trkpt>
      <trkpt lat="48.34281" lon="2.77755">
        <ele>48</ele>
        <time>2015-01-20T10:27:32Z</time>
      </trkpt>
      <trkpt lat="48.34287" lon="2.77752">
        <ele>48</ele>
        <time>2015-01-20T10:27:37Z</time>
      </trkpt>
      <trkpt lat="48.34317" lon="2.77724">
        <ele>48</ele>
        <time>2015-01-20T10:28:10Z</time>
      </trkpt>
      <trkpt lat="48.34327" lon="2.77718">
        <ele>49</ele>
        <time>2015-01-20T10:28:24Z</time>
      </trkpt>
      <trkpt lat="48.34332" lon="2.77718">
        <ele>49</ele>
        <time>2015-01-20T10:28:29Z</time>
      </trkpt>
      <trkpt lat="48.34336" lon="2.77714">
        <ele>48</ele>
        <time>2015-01-20T10:28:34Z</time>
      </trkpt>
      <trkpt lat="48.34339" lon="2.77709">
        <ele>47</ele>
        <time>2015-01-20T10:28:40Z</time>
      </trkpt>
      <trkpt lat="48.34343" lon="2.77705">
        <ele>47</ele>
        <time>2015-01-20T10:28:47Z</time>
      </trkpt>
      <trkpt lat="48.34351" lon="2.77697">
        <ele>48</ele>
        <time>2015-01-20T10:28:57Z</time>
      </trkpt>
      <trkpt lat="48.34361" lon="2.77688">
        <ele>47</ele>
        <time>2015-01-20T10:29:07Z</time>
      </trkpt>
      <trkpt lat="48.34366" lon="2.77686">
        <ele>49</ele>
        <time>2015-01-20T10:29:11Z</time>
      </trkpt>
      <trkpt lat="48.34374" lon="2.77678">
        <ele>49</ele>
        <time>2015-01-20T10:29:20Z</time>
      </trkpt>
      <trkpt lat="48.34388" lon="2.77671">
        <ele>49</ele>
        <time>2015-01-20T10:29:32Z</time>
      </trkpt>
      <trkpt lat="48.34392" lon="2.77665">
        <ele>50</ele>
        <time>2015-01-20T10:29:39Z</time>
      </trkpt>
      <trkpt lat="48.34406" lon="2.77657">
        <ele>48</ele>
        <time>2015-01-20T10:29:55Z</time>
      </trkpt>
      <trkpt lat="48.34421" lon="2.77647">
        <ele>46</ele>
        <time>2015-01-20T10:30:08Z</time>
      </trkpt>
      <trkpt lat="48.34424" lon="2.77642">
        <ele>46</ele>
        <time>2015-01-20T10:30:12Z</time>
      </trkpt>
      <trkpt lat="48.34428" lon="2.77637">
        <ele>47</ele>
        <time>2015-01-20T10:30:17Z</time>
      </trkpt>
    </trkseg>
  </trk>
</gpx>